Terminal Aerodrome Forecast
Issued by NWS Tallahassee, FL

Home | Current Version | Previous Version | Text Only | Print | Product List | Glossary On
Versions: 1 2 3 4 5 6 7 8 9 10 11 12 13 14
509
FTUS42 KTAE 131120
TAFTLH
TAF
KTLH 131120Z 1312/1412 36009KT P6SM SKC
      TEMPO 1312/1316 36011G21KT
     FM132300 02003KT P6SM SKC=

USA.gov is the U.S. government's official web portal to all federal, state and local government web resources and services.